Time;durP1;ratioP1;P1;durP2;ratioP2;P2;SDS_P1;SDS_P2;PMS_P1;PMS_P2;Temp;Humidity;BMP_temperature;BMP_pressure;BME280_temperature;BME280_humidity;BME280_pressure;Samples;Min_cycle;Max_cycle;Signal;HPM_P1;HPM_P2
2021/05/30 00:01:15;;;;;;;3.97;2.10;;;10.80;97.00;;;;;;5133906;27;20481;-82
2021/05/30 00:03:41;;;;;;;2.60;2.40;;;10.70;97.80;;;;;;5134111;27;20454;-83
2021/05/30 00:06:08;;;;;;;2.30;2.17;;;10.70;98.90;;;;;;5133822;27;20449;-83
2021/05/30 00:08:35;;;;;;;2.23;2.00;;;10.60;99.70;;;;;;5134139;27;20842;-83
2021/05/30 00:11:01;;;;;;;3.00;2.30;;;10.60;99.90;;;;;;5133791;27;20980;-83
2021/05/30 00:13:28;;;;;;;2.50;2.30;;;10.60;99.90;;;;;;5133885;27;20845;-83
2021/05/30 00:15:54;;;;;;;2.83;2.60;;;10.50;99.90;;;;;;5137623;27;20806;-83
2021/05/30 00:18:20;;;;;;;3.33;2.53;;;10.50;99.90;;;;;;5137884;27;20449;-83
2021/05/30 00:20:46;;;;;;;2.10;1.90;;;10.40;99.90;;;;;;5137828;27;20466;-83
2021/05/30 00:23:13;;;;;;;2.80;2.60;;;10.40;99.90;;;;;;5137759;27;20446;-83
2021/05/30 00:25:40;;;;;;;3.10;2.80;;;10.40;99.90;;;;;;5137718;27;20445;-83
2021/05/30 00:28:06;;;;;;;2.87;2.60;;;10.40;99.90;;;;;;5137268;27;20486;-83
2021/05/30 00:30:33;;;;;;;3.10;2.83;;;10.30;99.90;;;;;;5137599;27;20462;-83
2021/05/30 00:32:59;;;;;;;3.30;3.00;;;10.30;99.90;;;;;;5137264;27;20456;-83
2021/05/30 00:35:25;;;;;;;3.33;3.03;;;10.30;99.90;;;;;;5138408;27;20453;-79
2021/05/30 00:37:51;;;;;;;3.00;2.80;;;10.30;99.90;;;;;;5137137;27;20463;-79
2021/05/30 00:40:18;;;;;;;3.23;2.93;;;10.30;99.90;;;;;;5136969;27;20467;-79
2021/05/30 00:42:45;;;;;;;2.47;2.30;;;10.30;99.90;;;;;;5136998;27;20442;-79
2021/05/30 00:45:12;;;;;;;2.63;2.43;;;10.20;99.90;;;;;;5136977;27;20949;-79
2021/05/30 00:47:39;;;;;;;3.00;2.80;;;10.20;99.90;;;;;;5137164;27;20477;-79
2021/05/30 00:50:06;;;;;;;4.90;3.47;;;10.10;99.90;;;;;;5137129;27;20458;-79
2021/05/30 00:52:33;;;;;;;3.00;2.80;;;10.00;99.90;;;;;;5136822;27;20968;-79
2021/05/30 00:55:00;;;;;;;3.00;2.73;;;10.00;99.90;;;;;;5137114;27;20498;-79
2021/05/30 00:57:27;;;;;;;2.73;2.53;;;9.90;99.90;;;;;;5137109;27;20458;-79
2021/05/30 00:59:54;;;;;;;3.07;2.87;;;9.80;99.90;;;;;;5136990;27;20442;-79
2021/05/30 01:02:20;;;;;;;2.50;2.40;;;9.80;99.90;;;;;;5136614;27;20449;-79
2021/05/30 01:04:48;;;;;;;5.10;2.00;;;9.70;99.90;;;;;;5136913;27;20472;-79
2021/05/30 01:07:16;;;;;;;3.13;2.90;;;9.70;99.90;;;;;;5136836;27;20485;-82
2021/05/30 01:09:42;;;;;;;3.50;3.20;;;9.60;99.90;;;;;;5143599;27;20812;-83
2021/05/30 01:12:09;;;;;;;3.27;3.07;;;9.60;99.90;;;;;;5136827;27;20453;-83
2021/05/30 01:14:36;;;;;;;3.73;3.40;;;9.60;99.90;;;;;;5136770;27;20487;-83
2021/05/30 01:17:05;;;;;;;3.43;3.13;;;9.60;99.90;;;;;;5136758;27;20446;-83
2021/05/30 01:19:33;;;;;;;4.03;2.80;;;9.60;99.90;;;;;;5136663;27;20495;-83
2021/05/30 01:22:01;;;;;;;3.00;2.80;;;9.60;99.90;;;;;;5136665;27;20446;-82
2021/05/30 01:24:28;;;;;;;3.60;3.30;;;9.60;99.90;;;;;;5136491;27;20446;-80
2021/05/30 01:26:55;;;;;;;5.70;3.50;;;9.60;99.90;;;;;;5136183;27;20477;-79
2021/05/30 01:29:21;;;;;;;3.83;3.40;;;9.50;99.90;;;;;;5136409;27;20438;-79
2021/05/30 01:31:48;;;;;;;3.97;3.50;;;9.50;99.90;;;;;;5136393;27;20483;-77
2021/05/30 01:34:15;;;;;;;3.40;3.20;;;9.50;99.90;;;;;;5136335;27;20452;-77
2021/05/30 01:36:41;;;;;;;4.50;3.10;;;9.50;99.90;;;;;;5136408;27;20442;-79
2021/05/30 01:39:07;;;;;;;3.27;2.50;;;9.50;99.90;;;;;;5135951;27;20450;-79
2021/05/30 01:41:34;;;;;;;3.13;2.90;;;9.40;99.90;;;;;;5136474;27;20838;-83
2021/05/30 01:44:01;;;;;;;3.20;3.00;;;9.40;99.90;;;;;;5136321;27;20446;-83
2021/05/30 01:46:27;;;;;;;3.23;2.90;;;9.40;99.90;;;;;;5136278;27;20450;-76
2021/05/30 01:48:53;;;;;;;3.30;3.00;;;9.40;99.90;;;;;;5135959;27;20477;-76
2021/05/30 01:51:19;;;;;;;3.43;2.70;;;9.40;99.90;;;;;;5136008;27;20466;-76
2021/05/30 01:53:52;;;;;;;3.23;2.90;;;9.40;99.90;;;;;;5135993;27;20442;-76
2021/05/30 01:59:04;;;;;;;3.47;3.17;;;9.40;99.90;;;;;;5135943;27;20823;-79
2021/05/30 02:01:32;;;;;;;3.83;3.50;;;9.40;99.90;;;;;;5135748;27;20466;-79
2021/05/30 02:04:01;;;;;;;2.77;2.57;;;9.40;99.90;;;;;;5135823;27;20442;-79
2021/05/30 02:06:29;;;;;;;5.17;3.77;;;9.40;99.90;;;;;;5135754;27;20465;-76
2021/05/30 02:08:55;;;;;;;2.97;2.77;;;9.40;99.90;;;;;;5136145;27;20791;-76
2021/05/30 02:11:22;;;;;;;3.30;3.00;;;9.30;99.90;;;;;;5135579;27;20465;-77
2021/05/30 02:13:49;;;;;;;2.67;2.53;;;9.30;99.90;;;;;;5135587;27;20857;-78
2021/05/30 02:16:17;;;;;;;3.30;3.10;;;9.30;99.90;;;;;;5135513;27;20490;-79
2021/05/30 02:18:43;;;;;;;3.40;3.10;;;9.30;99.90;;;;;;5135440;27;20489;-79
2021/05/30 02:21:10;;;;;;;3.23;3.00;;;9.30;99.90;;;;;;5135334;27;20466;-79
2021/05/30 02:23:36;;;;;;;6.93;2.63;;;9.30;99.90;;;;;;5135407;27;20446;-79
2021/05/30 02:26:04;;;;;;;5.20;3.00;;;9.30;99.90;;;;;;5135042;27;20453;-83
2021/05/30 02:28:30;;;;;;;3.23;2.93;;;9.30;99.90;;;;;;5134830;27;20985;-82
2021/05/30 02:30:57;;;;;;;3.37;3.03;;;9.30;99.90;;;;;;5134923;27;20472;-83
2021/05/30 02:33:24;;;;;;;3.13;2.83;;;9.20;99.90;;;;;;5135172;27;20442;-79
2021/05/30 02:35:50;;;;;;;2.80;2.60;;;9.30;99.90;;;;;;5135168;27;20494;-79
2021/05/30 02:38:16;;;;;;;2.70;2.60;;;9.30;99.90;;;;;;5134534;27;20473;-79
2021/05/30 02:40:42;;;;;;;2.70;2.50;;;9.30;99.90;;;;;;5134968;27;20856;-79
2021/05/30 02:43:09;;;;;;;3.03;2.47;;;9.40;99.90;;;;;;5134679;27;20954;-78
2021/05/30 02:45:36;;;;;;;2.30;1.80;;;9.50;99.90;;;;;;5134992;27;20446;-79
2021/05/30 02:48:02;;;;;;;2.50;2.40;;;9.50;99.90;;;;;;5134931;27;20445;-79
2021/05/30 02:50:29;;;;;;;2.80;2.50;;;9.50;99.90;;;;;;5134550;27;20991;-79
2021/05/30 02:52:55;;;;;;;2.73;2.60;;;9.50;99.90;;;;;;5134853;27;20445;-79
2021/05/30 02:55:22;;;;;;;2.67;2.47;;;9.40;99.90;;;;;;5134554;27;20426;-79
2021/05/30 02:57:48;;;;;;;5.20;2.40;;;9.30;99.90;;;;;;5134702;27;20481;-79
2021/05/30 03:00:16;;;;;;;3.80;2.93;;;9.30;99.90;;;;;;5134699;27;20477;-77
2021/05/30 03:02:43;;;;;;;2.40;2.30;;;9.20;99.90;;;;;;5134771;27;20529;-76
2021/05/30 03:05:10;;;;;;;2.77;2.57;;;9.20;99.90;;;;;;5134720;27;20803;-79
2021/05/30 03:07:37;;;;;;;3.03;2.73;;;9.10;99.90;;;;;;5134696;27;20442;-82
2021/05/30 03:10:04;;;;;;;3.53;3.23;;;9.10;99.90;;;;;;5134715;27;20462;-83
2021/05/30 03:12:30;;;;;;;3.13;2.83;;;9.10;99.90;;;;;;5134723;27;20454;-83
2021/05/30 03:14:57;;;;;;;3.53;2.73;;;9.10;99.90;;;;;;5134702;27;20472;-83
2021/05/30 03:17:23;;;;;;;3.00;2.70;;;9.00;99.90;;;;;;5134504;27;20442;-83
2021/05/30 03:19:49;;;;;;;2.67;2.47;;;9.00;99.90;;;;;;5134502;27;20450;-77
2021/05/30 03:22:15;;;;;;;3.03;2.60;;;9.00;99.90;;;;;;5134476;27;20461;-77
2021/05/30 03:24:42;;;;;;;2.97;2.73;;;9.00;99.90;;;;;;5134145;27;20457;-83
2021/05/30 03:27:09;;;;;;;3.17;2.87;;;9.00;99.90;;;;;;5133988;27;20474;-79
2021/05/30 03:29:35;;;;;;;3.23;2.50;;;9.00;99.90;;;;;;5134093;27;20456;-79
2021/05/30 03:32:01;;;;;;;2.70;2.40;;;9.00;99.90;;;;;;5134382;27;20450;-79
2021/05/30 03:34:28;;;;;;;4.00;2.93;;;9.00;99.90;;;;;;5134328;27;20451;-79
2021/05/30 03:36:56;;;;;;;3.40;3.10;;;8.90;99.90;;;;;;5134335;27;20451;-79
2021/05/30 03:39:24;;;;;;;3.70;2.80;;;8.90;99.90;;;;;;5134529;27;20482;-79
2021/05/30 03:41:55;;;;;;;3.40;3.10;;;8.90;99.90;;;;;;5134486;27;20465;-79
2021/05/30 03:44:21;;;;;;;3.23;2.93;;;8.90;99.90;;;;;;5135651;28;20426;-79
2021/05/30 03:46:47;;;;;;;2.83;2.40;;;8.90;99.90;;;;;;5134576;27;20465;-79
2021/05/30 03:49:14;;;;;;;3.27;3.00;;;8.90;99.90;;;;;;5135662;27;20442;-79
2021/05/30 03:51:40;;;;;;;2.90;2.57;;;9.00;99.90;;;;;;5138360;27;20473;-79
2021/05/30 03:54:07;;;;;;;3.03;2.83;;;9.00;99.90;;;;;;5138309;27;20442;-79
2021/05/30 03:56:33;;;;;;;3.93;3.30;;;9.10;99.90;;;;;;5138282;27;20442;-79
2021/05/30 03:59:00;;;;;;;3.00;2.80;;;9.10;99.90;;;;;;5137830;27;20831;-79
2021/05/30 04:01:26;;;;;;;2.63;2.43;;;9.20;99.90;;;;;;5137803;27;20984;-79
2021/05/30 04:03:53;;;;;;;3.90;2.80;;;9.20;99.90;;;;;;5137800;27;20441;-79
2021/05/30 04:06:19;;;;;;;3.20;3.00;;;9.20;99.90;;;;;;5137759;27;20454;-79
2021/05/30 04:08:47;;;;;;;3.10;2.80;;;9.20;99.90;;;;;;5138042;27;20822;-79
2021/05/30 04:11:14;;;;;;;3.03;2.83;;;9.20;99.90;;;;;;5137610;27;20988;-79
2021/05/30 04:13:40;;;;;;;3.30;2.97;;;9.20;99.90;;;;;;5137971;27;20498;-79
2021/05/30 04:16:07;;;;;;;2.90;2.70;;;9.30;99.90;;;;;;5137901;27;20449;-79
2021/05/30 04:18:34;;;;;;;3.30;3.10;;;9.30;99.90;;;;;;5137438;27;20485;-79
2021/05/30 04:21:00;;;;;;;2.87;2.67;;;9.30;99.90;;;;;;5137777;27;20827;-79
2021/05/30 04:23:26;;;;;;;3.03;2.83;;;9.30;99.90;;;;;;5138056;27;20430;-78
2021/05/30 04:25:53;;;;;;;3.07;2.77;;;9.30;99.90;;;;;;5137398;27;20937;-79
2021/05/30 04:28:19;;;;;;;3.70;3.40;;;9.30;99.90;;;;;;5137123;27;20469;-79
2021/05/30 04:30:45;;;;;;;3.07;2.87;;;9.40;99.90;;;;;;5137491;27;20515;-79
2021/05/30 04:33:13;;;;;;;2.80;2.60;;;9.40;99.90;;;;;;5137567;27;20510;-78
2021/05/30 04:35:39;;;;;;;3.17;2.33;;;9.40;99.90;;;;;;5137493;27;20503;-79
2021/05/30 04:38:05;;;;;;;3.43;3.13;;;9.40;99.90;;;;;;5137076;27;21015;-79
2021/05/30 04:40:31;;;;;;;4.90;3.67;;;9.40;99.90;;;;;;5137077;27;20977;-82
2021/05/30 04:42:58;;;;;;;2.70;2.50;;;9.50;99.90;;;;;;5137413;27;20438;-83
2021/05/30 04:45:24;;;;;;;3.47;3.17;;;9.50;99.90;;;;;;5137380;27;20446;-83
2021/05/30 04:47:51;;;;;;;3.30;3.07;;;9.60;99.90;;;;;;5137355;27;20439;-83
2021/05/30 04:50:18;;;;;;;4.33;3.43;;;9.60;99.90;;;;;;5137177;27;20470;-82
2021/05/30 04:52:44;;;;;;;3.70;3.03;;;9.70;99.90;;;;;;5137211;27;20446;-83
2021/05/30 04:55:12;;;;;;;2.70;2.50;;;9.80;99.90;;;;;;5136895;27;20442;-82
2021/05/30 04:57:39;;;;;;;3.40;2.60;;;9.90;99.90;;;;;;5137047;27;20562;-83
2021/05/30 05:00:08;;;;;;;3.23;2.90;;;10.10;99.90;;;;;;5136553;27;20466;-83
2021/05/30 05:02:34;;;;;;;2.87;2.67;;;10.20;99.90;;;;;;5137157;27;20450;-82
2021/05/30 05:05:00;;;;;;;3.30;3.00;;;10.40;99.90;;;;;;5137204;27;20449;-81
2021/05/30 05:07:28;;;;;;;5.17;2.43;;;10.50;99.90;;;;;;5137140;27;20503;-82
2021/05/30 05:09:54;;;;;;;2.53;2.43;;;10.60;99.90;;;;;;5137277;27;20442;-82
2021/05/30 05:12:20;;;;;;;3.03;2.83;;;10.80;99.90;;;;;;5137153;27;20434;-80
2021/05/30 05:14:46;;;;;;;2.47;2.30;;;10.90;99.90;;;;;;5136574;27;20827;-81
2021/05/30 05:17:12;;;;;;;3.20;2.80;;;11.00;99.90;;;;;;5136912;27;20442;-82
2021/05/30 05:19:39;;;;;;;3.13;2.93;;;11.00;99.90;;;;;;5136655;27;20482;-82
2021/05/30 05:22:05;;;;;;;2.80;2.50;;;11.00;99.90;;;;;;5136672;27;20505;-78
2021/05/30 05:24:32;;;;;;;2.30;2.10;;;11.10;99.90;;;;;;5136563;27;20449;-79
2021/05/30 05:26:59;;;;;;;2.63;2.43;;;11.30;99.90;;;;;;5136306;27;20473;-79
2021/05/30 05:29:25;;;;;;;2.57;2.47;;;11.40;99.90;;;;;;5136485;27;20442;-79
2021/05/30 05:31:51;;;;;;;2.20;2.10;;;11.60;99.90;;;;;;5136381;27;20458;-77
2021/05/30 05:34:17;;;;;;;3.00;1.93;;;11.90;99.90;;;;;;5136395;27;20449;-77
2021/05/30 05:36:43;;;;;;;2.53;2.33;;;12.00;99.90;;;;;;5136347;27;20450;-76
2021/05/30 05:39:10;;;;;;;3.07;2.80;;;12.20;99.90;;;;;;5136200;27;20539;-77
2021/05/30 05:41:37;;;;;;;3.40;2.80;;;12.40;99.90;;;;;;5135968;27;21003;-82
2021/05/30 05:44:04;;;;;;;4.73;2.87;;;12.50;99.90;;;;;;5136738;27;20450;-82
2021/05/30 05:46:30;;;;;;;2.10;2.00;;;12.70;99.90;;;;;;5136430;27;20450;-82
2021/05/30 05:48:56;;;;;;;2.47;2.27;;;12.90;99.90;;;;;;5136162;27;20430;-78
2021/05/30 05:51:22;;;;;;;2.20;2.00;;;13.10;99.90;;;;;;5135997;27;20470;-79
2021/05/30 05:53:49;;;;;;;2.23;2.10;;;13.30;99.90;;;;;;5136026;27;20778;-79
2021/05/30 05:56:15;;;;;;;2.53;2.30;;;13.40;99.90;;;;;;5135636;27;20446;-79
2021/05/30 05:58:43;;;;;;;2.70;2.50;;;13.60;99.90;;;;;;5137339;27;20477;-79
2021/05/30 06:01:10;;;;;;;3.27;2.83;;;13.80;99.90;;;;;;5135810;27;20531;-79
2021/05/30 06:03:36;;;;;;;2.57;2.40;;;14.00;99.90;;;;;;5135972;27;20446;-79
2021/05/30 06:06:04;;;;;;;3.10;2.87;;;14.20;99.90;;;;;;5136366;27;20442;-79
2021/05/30 06:08:30;;;;;;;2.80;2.50;;;14.40;99.90;;;;;;5135686;27;20525;-79
2021/05/30 06:10:56;;;;;;;2.67;2.47;;;14.60;99.90;;;;;;5135706;27;20484;-82
2021/05/30 06:13:22;;;;;;;3.07;2.77;;;14.80;99.90;;;;;;5136311;27;20964;-82
2021/05/30 06:15:50;;;;;;;2.30;2.20;;;15.20;99.30;;;;;;5135947;27;20844;-81
2021/05/30 06:18:17;;;;;;;2.77;2.57;;;15.80;97.30;;;;;;5136482;27;20510;-81
2021/05/30 06:20:45;;;;;;;2.37;2.27;;;16.20;96.80;;;;;;5135891;27;20493;-81
2021/05/30 06:23:12;;;;;;;3.13;2.67;;;16.90;93.50;;;;;;5135643;27;20941;-81
2021/05/30 06:25:39;;;;;;;2.37;2.17;;;17.30;91.20;;;;;;5135932;27;20445;-82
2021/05/30 06:28:05;;;;;;;2.60;2.40;;;17.90;90.10;;;;;;5136000;27;20853;-82
2021/05/30 06:30:34;;;;;;;2.10;1.90;;;18.60;84.80;;;;;;5136132;27;20465;-81
2021/05/30 06:33:02;;;;;;;2.87;2.67;;;19.00;82.50;;;;;;5135524;27;20457;-81
2021/05/30 06:35:29;;;;;;;2.60;2.40;;;20.00;74.00;;;;;;5135473;27;20448;-80
2021/05/30 06:37:56;;;;;;;1.77;1.67;;;20.70;68.70;;;;;;5135105;27;20477;-80
2021/05/30 06:40:22;;;;;;;2.17;2.05;;;21.00;67.70;;;;;;5134725;27;20722;-80
2021/05/30 06:42:49;;;;;;;2.00;1.90;;;21.50;63.20;;;;;;5135098;27;20227;-78
2021/05/30 06:45:16;;;;;;;2.17;1.98;;;21.90;61.20;;;;;;5135015;27;20210;-76
2021/05/30 06:47:42;;;;;;;2.15;2.05;;;22.90;56.60;;;;;;5134982;27;20204;-76
2021/05/30 06:50:10;;;;;;;1.95;1.85;;;23.30;53.90;;;;;;5134568;27;20724;-77
2021/05/30 06:52:36;;;;;;;1.80;1.70;;;23.50;53.00;;;;;;5134886;27;20208;-76
2021/05/30 06:55:03;;;;;;;2.08;1.98;;;23.70;52.70;;;;;;5134554;27;20554;-77
2021/05/30 06:57:30;;;;;;;2.55;1.80;;;24.00;51.30;;;;;;5134422;27;20199;-77
2021/05/30 06:59:56;;;;;;;1.27;1.27;;;24.00;50.40;;;;;;5134765;27;20211;-77
2021/05/30 07:02:22;;;;;;;1.90;1.42;;;24.50;48.40;;;;;;5134722;27;20253;-78
2021/05/30 07:04:48;;;;;;;1.95;1.80;;;24.50;48.90;;;;;;5134726;27;20203;-77
2021/05/30 07:07:15;;;;;;;1.35;1.35;;;24.90;48.00;;;;;;5134654;27;20201;-78
2021/05/30 07:09:42;;;;;;;1.77;1.67;;;26.00;45.30;;;;;;5134553;27;20207;-78
2021/05/30 07:12:09;;;;;;;1.83;1.77;;;27.00;43.00;;;;;;5134587;27;20196;-77
2021/05/30 07:14:35;;;;;;;1.83;1.40;;;27.50;40.80;;;;;;5135419;27;20207;-79
2021/05/30 07:17:01;;;;;;;1.75;1.65;;;27.60;40.90;;;;;;5134224;27;20218;-79
2021/05/30 07:19:28;;;;;;;1.60;1.50;;;28.10;40.10;;;;;;5134147;27;20703;-79
2021/05/30 07:21:54;;;;;;;1.80;1.70;;;28.20;38.20;;;;;;5134471;27;20556;-81
2021/05/30 07:24:21;;;;;;;1.50;1.40;;;28.20;38.60;;;;;;5134747;27;20212;-80
2021/05/30 07:26:47;;;;;;;2.17;2.03;;;28.70;37.70;;;;;;5134098;27;20243;-81
2021/05/30 07:29:16;;;;;;;1.75;1.67;;;28.70;36.20;;;;;;5134454;27;20187;-81
2021/05/30 07:31:42;;;;;;;1.90;1.80;;;29.00;35.90;;;;;;5134303;27;20269;-78
2021/05/30 07:34:10;;;;;;;1.20;1.20;;;29.70;35.00;;;;;;5134322;27;20200;-79
2021/05/30 07:36:36;;;;;;;1.40;1.40;;;30.40;34.70;;;;;;5134018;27;20683;-78
2021/05/30 07:39:02;;;;;;;1.80;1.70;;;30.70;33.50;;;;;;5133975;27;20690;-79
2021/05/30 07:41:30;;;;;;;1.67;1.58;;;31.10;32.50;;;;;;5134204;27;20224;-79
2021/05/30 07:43:57;;;;;;;1.95;1.80;;;31.40;32.10;;;;;;5134281;27;20256;-78
2021/05/30 07:46:23;;;;;;;3.22;1.52;;;32.20;31.10;;;;;;5134826;27;20223;-79
2021/05/30 07:48:49;;;;;;;1.40;1.30;;;32.90;30.30;;;;;;5134187;27;20220;-78
2021/05/30 07:51:15;;;;;;;1.63;1.52;;;33.10;29.50;;;;;;5134130;27;20228;-77
2021/05/30 07:53:42;;;;;;;1.70;1.60;;;32.80;29.20;;;;;;5134196;27;20204;-80
2021/05/30 07:56:08;;;;;;;1.90;1.80;;;32.80;29.30;;;;;;5134174;27;20207;-81
2021/05/30 07:58:35;;;;;;;2.15;2.05;;;32.90;29.40;;;;;;5134154;27;20204;-78
2021/05/30 08:01:02;;;;;;;1.35;1.25;;;33.30;28.70;;;;;;5133915;27;20216;-81
2021/05/30 08:03:28;;;;;;;1.20;1.20;;;33.10;27.50;;;;;;5134320;27;20201;-82
2021/05/30 08:05:55;;;;;;;1.40;1.30;;;32.90;28.60;;;;;;5134747;27;20210;-81
2021/05/30 08:08:22;;;;;;;1.70;1.60;;;32.70;27.00;;;;;;5135199;27;20219;-83
2021/05/30 08:10:49;;;;;;;2.13;1.42;;;32.50;27.50;;;;;;5134741;27;20233;-81
2021/05/30 08:13:15;;;;;;;1.80;1.70;;;32.20;27.70;;;;;;5135742;27;20678;-83
2021/05/30 08:15:42;;;;;;;1.60;1.60;;;31.90;28.60;;;;;;5133958;27;20214;-83
2021/05/30 08:18:09;;;;;;;1.73;1.63;;;32.00;28.10;;;;;;5134012;27;20198;-77
2021/05/30 08:20:35;;;;;;;1.23;1.13;;;31.50;28.60;;;;;;5133922;27;20224;-77
2021/05/30 08:23:01;;;;;;;2.00;1.42;;;31.40;27.60;;;;;;5133906;27;20206;-79
2021/05/30 08:25:28;;;;;;;2.63;1.40;;;31.30;27.20;;;;;;5133852;27;20207;-79
2021/05/30 08:27:54;;;;;;;1.80;1.70;;;30.90;27.80;;;;;;5133316;27;20253;-79
2021/05/30 08:30:21;;;;;;;1.55;1.48;;;30.70;28.20;;;;;;5133789;27;20221;-78
2021/05/30 08:32:49;;;;;;;1.70;1.50;;;31.00;27.30;;;;;;5134211;27;20259;-81
2021/05/30 08:35:16;;;;;;;2.03;1.42;;;30.70;27.70;;;;;;5135597;27;20206;-83
2021/05/30 08:37:44;;;;;;;1.58;1.58;;;30.20;28.30;;;;;;5138279;27;20204;-81
2021/05/30 08:40:12;;;;;;;2.55;1.73;;;29.90;28.70;;;;;;5137920;27;20297;-81
2021/05/30 08:42:39;;;;;;;1.60;1.50;;;29.50;28.50;;;;;;5137262;27;20688;-81
2021/05/30 08:45:06;;;;;;;1.65;1.63;;;29.00;29.00;;;;;;5137213;27;20750;-81
2021/05/30 08:47:33;;;;;;;1.77;1.67;;;28.50;30.70;;;;;;5137818;27;20248;-84
2021/05/30 08:50:00;;;;;;;1.73;1.63;;;27.80;31.70;;;;;;5136914;27;20588;-78
2021/05/30 08:52:26;;;;;;;1.60;1.50;;;26.80;32.30;;;;;;5137264;27;20200;-79
2021/05/30 08:54:53;;;;;;;1.52;1.52;;;26.50;33.20;;;;;;5137242;27;20200;-78
2021/05/30 08:57:19;;;;;;;1.95;1.85;;;26.60;34.50;;;;;;5137180;27;20204;-78
2021/05/30 08:59:54;;;;;;;2.20;1.83;;;26.40;34.10;;;;;;5136686;27;20723;-77
2021/05/30 09:02:21;;;;;;;1.70;1.60;;;25.40;33.40;;;;;;5137086;27;20199;-78
2021/05/30 09:04:52;;;;;;;2.00;1.90;;;24.50;35.30;;;;;;5137012;27;20225;-78
2021/05/30 09:07:35;;;;;;;2.75;2.33;;;23.90;37.20;;;;;;5136652;27;20200;-78
2021/05/30 09:10:05;;;;;;;1.87;1.77;;;23.20;35.90;;;;;;5136835;27;20247;-79
2021/05/30 09:12:36;;;;;;;1.60;1.50;;;22.60;37.60;;;;;;5136578;27;20971;-78
2021/05/30 09:15:07;;;;;;;1.60;1.50;;;22.20;38.30;;;;;;5136903;27;20502;-80
2021/05/30 09:17:34;;;;;;;1.83;1.73;;;21.80;38.30;;;;;;5137698;27;20437;-79
2021/05/30 09:20:01;;;;;;;2.40;1.90;;;21.10;39.10;;;;;;5136629;27;20461;-78
2021/05/30 09:22:34;;;;;;;2.00;1.90;;;20.50;39.40;;;;;;5136793;27;20449;-78
2021/05/30 09:25:11;;;;;;;3.33;2.30;;;20.10;40.50;;;;;;5136882;27;20445;-78
2021/05/30 09:27:42;;;;;;;2.27;2.13;;;19.70;41.10;;;;;;5136262;27;20474;-79
2021/05/30 09:30:20;;;;;;;3.90;1.77;;;19.70;42.10;;;;;;5136772;27;20493;-78
2021/05/30 09:33:09;;;;;;;1.83;1.73;;;20.10;41.90;;;;;;5136734;27;20448;-79
2021/05/30 09:35:56;;;;;;;2.20;2.10;;;20.20;41.40;;;;;;5132246;27;20446;-78
2021/05/30 09:38:31;;;;;;;2.53;1.83;;;20.00;41.70;;;;;;5136775;27;20452;-79
2021/05/30 09:40:58;;;;;;;1.90;1.80;;;19.90;42.30;;;;;;5136254;27;20983;-79
2021/05/30 09:43:27;;;;;;;2.37;2.27;;;19.70;43.00;;;;;;5136696;27;20434;-81
2021/05/30 09:45:59;;;;;;;1.90;1.70;;;19.60;43.30;;;;;;5136551;27;20434;-80
2021/05/30 09:48:25;;;;;;;1.83;1.50;;;19.70;43.50;;;;;;5137196;27;20843;-81
2021/05/30 09:51:04;;;;;;;4.03;2.37;;;19.70;42.60;;;;;;5137762;27;20843;-81
2021/05/30 09:53:52;;;;;;;1.63;1.53;;;19.70;42.90;;;;;;5137613;27;20509;-81
2021/05/30 09:56:33;;;;;;;2.10;1.90;;;19.80;42.40;;;;;;5137376;27;20435;-81
2021/05/30 09:59:00;;;;;;;2.13;1.70;;;20.00;42.70;;;;;;5136378;27;20936;-81
2021/05/30 10:01:27;;;;;;;3.07;2.00;;;20.30;42.50;;;;;;5136339;27;20480;-81
2021/05/30 10:03:54;;;;;;;1.50;1.40;;;20.80;41.70;;;;;;5136616;27;20449;-81
2021/05/30 10:06:20;;;;;;;2.00;1.90;;;21.30;41.10;;;;;;5136161;27;20435;-82
2021/05/30 10:08:48;;;;;;;2.20;2.10;;;21.50;41.30;;;;;;5136205;27;20478;-80
2021/05/30 10:11:15;;;;;;;2.23;2.13;;;21.20;40.80;;;;;;5135792;27;20466;-80
2021/05/30 10:13:41;;;;;;;2.50;2.27;;;20.90;41.40;;;;;;5135912;27;20446;-79
2021/05/30 10:16:09;;;;;;;2.20;1.60;;;20.90;41.70;;;;;;5135721;27;20964;-79
2021/05/30 10:18:40;;;;;;;3.73;1.90;;;21.00;40.70;;;;;;5135746;27;20438;-79
2021/05/30 10:21:09;;;;;;;2.30;2.00;;;20.70;41.10;;;;;;5136598;27;20820;-79
2021/05/30 10:23:39;;;;;;;2.83;2.07;;;20.20;41.70;;;;;;5135713;27;20987;-80
2021/05/30 10:26:15;;;;;;;8.90;4.03;;;19.80;42.50;;;;;;5135995;27;20441;-79
2021/05/30 10:28:51;;;;;;;21.57;9.03;;;19.60;43.00;;;;;;5136147;27;21004;-79
2021/05/30 10:31:20;;;;;;;4.33;2.63;;;19.70;42.00;;;;;;5135831;27;20506;-79
2021/05/30 10:34:12;;;;;;;1.90;1.80;;;20.10;42.20;;;;;;5135669;27;20442;-79
2021/05/30 10:36:40;;;;;;;2.43;2.23;;;20.20;44.30;;;;;;5135565;27;20446;-78
2021/05/30 10:39:29;;;;;;;1.93;1.83;;;20.20;44.20;;;;;;5135905;27;20991;-81
2021/05/30 10:42:09;;;;;;;2.20;2.10;;;20.30;45.80;;;;;;5134938;27;20654;-80
2021/05/30 10:44:53;;;;;;;2.07;1.93;;;20.40;44.30;;;;;;5135101;27;20442;-80
2021/05/30 10:47:20;;;;;;;2.57;2.47;;;20.30;44.80;;;;;;5135053;27;20422;-80
2021/05/30 10:50:09;;;;;;;1.97;1.87;;;20.30;44.60;;;;;;5134848;27;20530;-78
2021/05/30 10:52:36;;;;;;;1.80;1.70;;;20.20;45.10;;;;;;5130542;27;20963;-78
2021/05/30 10:55:11;;;;;;;1.87;1.77;;;20.60;43.70;;;;;;5134853;27;20438;-78
2021/05/30 10:57:39;;;;;;;2.50;2.30;;;20.80;43.70;;;;;;5134393;27;20442;-78
2021/05/30 11:00:33;;;;;;;2.13;2.00;;;21.20;42.70;;;;;;5134752;27;20460;-78
2021/05/30 11:03:12;;;;;;;2.70;2.17;;;21.20;42.60;;;;;;5134494;27;20978;-79
2021/05/30 11:05:43;;;;;;;2.10;2.00;;;21.10;43.30;;;;;;5134728;27;20518;-78
2021/05/30 11:08:56;;;;;;;2.40;2.07;;;21.40;42.00;;;;;;5135010;27;20470;-82
2021/05/30 11:11:24;;;;;;;2.33;2.13;;;21.50;42.80;;;;;;5134968;27;20543;-81
2021/05/30 11:13:54;;;;;;;3.30;2.90;;;21.50;42.20;;;;;;5135450;27;20816;-78
2021/05/30 11:16:21;;;;;;;2.87;2.67;;;21.20;41.30;;;;;;5134596;27;20453;-78
2021/05/30 11:18:58;;;;;;;2.03;1.87;;;20.90;41.50;;;;;;5134204;27;20446;-79
2021/05/30 11:21:29;;;;;;;1.90;1.80;;;20.70;42.50;;;;;;5134958;27;20476;-81
2021/05/30 11:23:56;;;;;;;2.50;2.30;;;20.70;43.00;;;;;;5135071;27;20422;-81
2021/05/30 11:26:22;;;;;;;1.90;1.80;;;20.60;43.40;;;;;;5134909;27;20494;-80
2021/05/30 11:28:48;;;;;;;2.13;2.03;;;20.40;42.40;;;;;;5134535;27;20486;-79
2021/05/30 11:31:16;;;;;;;2.40;2.20;;;20.50;43.60;;;;;;5134638;27;20481;-78
2021/05/30 11:33:45;;;;;;;2.03;1.93;;;20.50;43.40;;;;;;5135149;27;20493;-80
2021/05/30 11:36:28;;;;;;;3.37;2.10;;;20.70;43.50;;;;;;5134492;27;20808;-80
2021/05/30 11:38:56;;;;;;;2.37;2.17;;;20.60;43.60;;;;;;5132789;27;20456;-81
2021/05/30 11:41:25;;;;;;;3.20;2.20;;;20.60;42.50;;;;;;5134389;27;20458;-80
2021/05/30 11:44:06;;;;;;;2.63;2.20;;;20.40;42.90;;;;;;5134381;27;20441;-82
2021/05/30 11:46:36;;;;;;;2.53;2.33;;;20.20;43.50;;;;;;5134326;27;20422;-78
2021/05/30 11:49:12;;;;;;;4.47;2.20;;;20.00;42.70;;;;;;5134208;27;20482;-78
2021/05/30 11:51:58;;;;;;;2.53;2.17;;;19.90;42.80;;;;;;5134199;27;20462;-78
2021/05/30 11:54:26;;;;;;;2.03;1.93;;;19.90;42.80;;;;;;5134240;27;20505;-78
2021/05/30 11:56:55;;;;;;;2.10;2.00;;;19.80;42.10;;;;;;5134163;27;20444;-79
2021/05/30 11:59:33;;;;;;;5.70;2.50;;;19.70;43.00;;;;;;5134153;27;20482;-78
2021/05/30 12:02:00;;;;;;;3.27;1.90;;;19.80;42.60;;;;;;5135345;27;20461;-79
2021/05/30 12:04:30;;;;;;;2.60;2.40;;;20.00;41.70;;;;;;5134758;27;20438;-79
2021/05/30 12:06:57;;;;;;;2.57;2.33;;;20.00;41.70;;;;;;5134926;27;20446;-79
2021/05/30 12:09:24;;;;;;;2.33;2.23;;;19.90;42.30;;;;;;5135260;27;20577;-79
2021/05/30 12:11:51;;;;;;;2.20;2.10;;;19.90;42.60;;;;;;5138555;27;20470;-79
2021/05/30 12:14:17;;;;;;;2.20;2.00;;;19.80;42.10;;;;;;5138398;27;20450;-80
2021/05/30 12:16:47;;;;;;;2.20;2.10;;;19.60;41.70;;;;;;5138467;27;20449;-78
2021/05/30 12:19:14;;;;;;;2.33;2.13;;;19.50;42.00;;;;;;5139371;27;20430;-79
2021/05/30 12:21:42;;;;;;;2.97;2.50;;;19.40;42.90;;;;;;5138436;27;20469;-81
2021/05/30 12:24:11;;;;;;;2.33;2.13;;;19.30;44.40;;;;;;5138694;27;20445;-81
2021/05/30 12:26:41;;;;;;;2.20;2.10;;;19.40;41.40;;;;;;5138279;27;20520;-82
2021/05/30 12:29:08;;;;;;;2.53;2.33;;;19.30;42.50;;;;;;5138080;27;20472;-81
2021/05/30 12:31:34;;;;;;;2.37;2.00;;;19.40;42.70;;;;;;5137936;27;20466;-82
2021/05/30 12:34:02;;;;;;;1.77;1.67;;;19.30;42.50;;;;;;5138243;27;20442;-77
2021/05/30 12:36:34;;;;;;;2.70;2.50;;;19.20;43.10;;;;;;5137554;27;20442;-78
2021/05/30 12:39:07;;;;;;;2.60;2.50;;;19.20;42.90;;;;;;5137217;27;20952;-79
2021/05/30 12:41:35;;;;;;;2.40;2.23;;;19.20;42.50;;;;;;5137197;27;21016;-78
2021/05/30 12:44:20;;;;;;;4.37;2.23;;;19.20;43.20;;;;;;5137472;27;20876;-78
2021/05/30 12:46:55;;;;;;;2.23;2.03;;;19.40;43.30;;;;;;5138002;27;20462;-79
2021/05/30 12:49:21;;;;;;;2.00;1.90;;;19.50;42.80;;;;;;5136997;27;20489;-79
2021/05/30 12:52:00;;;;;;;1.67;1.57;;;19.60;43.10;;;;;;5137226;27;20472;-79
2021/05/30 12:54:27;;;;;;;1.80;1.70;;;19.40;42.70;;;;;;5136942;27;20449;-79
2021/05/30 12:56:54;;;;;;;1.80;1.70;;;19.30;42.50;;;;;;5136962;27;20941;-81
2021/05/30 12:59:22;;;;;;;2.10;1.90;;;19.20;43.30;;;;;;5137034;27;20457;-80